sensor_id;sensor_type;location;lat;lon;timestamp;temperature;humidity
108;DHT22;49;48.530;9.200;2022-11-11T00:02:01;11.20;1.00
108;DHT22;49;48.530;9.200;2022-11-11T00:09:30;10.00;1.00
108;DHT22;49;48.530;9.200;2022-11-11T00:11:57;9.80;2.70
108;DHT22;49;48.530;9.200;2022-11-11T00:14:24;9.90;2.50
108;DHT22;49;48.530;9.200;2022-11-11T00:19:24;9.50;3.10
108;DHT22;49;48.530;9.200;2022-11-11T00:22:19;9.30;3.20
108;DHT22;49;48.530;9.200;2022-11-11T00:30:01;9.40;3.40
108;DHT22;49;48.530;9.200;2022-11-11T00:32:30;9.20;4.10
108;DHT22;49;48.530;9.200;2022-11-11T00:34:59;9.00;4.50
108;DHT22;49;48.530;9.200;2022-11-11T00:37:45;8.90;4.60
108;DHT22;49;48.530;9.200;2022-11-11T00:42:40;8.30;7.10
108;DHT22;49;48.530;9.200;2022-11-11T00:45:09;8.40;7.60
108;DHT22;49;48.530;9.200;2022-11-11T00:47:36;8.30;7.60
108;DHT22;49;48.530;9.200;2022-11-11T00:50:24;8.40;7.60
108;DHT22;49;48.530;9.200;2022-11-11T00:53:11;8.30;6.80
108;DHT22;49;48.530;9.200;2022-11-11T00:55:39;8.30;7.80
108;DHT22;49;48.530;9.200;2022-11-11T00:58:06;8.50;7.80
108;DHT22;49;48.530;9.200;2022-11-11T01:00:34;8.50;7.00
108;DHT22;49;48.530;9.200;2022-11-11T01:03:01;8.40;6.50
108;DHT22;49;48.530;9.200;2022-11-11T01:05:29;8.40;6.30
108;DHT22;49;48.530;9.200;2022-11-11T01:07:56;8.40;6.60
108;DHT22;49;48.530;9.200;2022-11-11T01:10:23;8.50;6.90
108;DHT22;49;48.530;9.200;2022-11-11T01:13:13;8.60;6.70
108;DHT22;49;48.530;9.200;2022-11-11T01:15:42;8.70;6.20
108;DHT22;49;48.530;9.200;2022-11-11T01:18:11;8.60;6.90
108;DHT22;49;48.530;9.200;2022-11-11T01:20:39;8.70;6.50
108;DHT22;49;48.530;9.200;2022-11-11T01:25:38;8.60;6.50
108;DHT22;49;48.530;9.200;2022-11-11T01:28:07;8.70;6.70
108;DHT22;49;48.530;9.200;2022-11-11T01:30:34;8.80;6.40
108;DHT22;49;48.530;9.200;2022-11-11T01:33:02;8.60;5.80
108;DHT22;49;48.530;9.200;2022-11-11T01:35:29;8.50;6.60
108;DHT22;49;48.530;9.200;2022-11-11T01:37:58;8.40;6.20
108;DHT22;49;48.530;9.200;2022-11-11T01:40:26;8.40;6.10
108;DHT22;49;48.530;9.200;2022-11-11T01:43:14;8.60;6.50
108;DHT22;49;48.530;9.200;2022-11-11T01:45:47;8.60;5.80
108;DHT22;49;48.530;9.200;2022-11-11T01:48:18;8.70;6.50
108;DHT22;49;48.530;9.200;2022-11-11T01:51:09;8.60;5.20
108;DHT22;49;48.530;9.200;2022-11-11T01:53:38;8.40;5.30
108;DHT22;49;48.530;9.200;2022-11-11T01:58:35;8.10;6.30
108;DHT22;49;48.530;9.200;2022-11-11T02:01:03;8.30;6.80
108;DHT22;49;48.530;9.200;2022-11-11T02:03:33;8.30;5.60
108;DHT22;49;48.530;9.200;2022-11-11T02:06:01;8.00;6.20
108;DHT22;49;48.530;9.200;2022-11-11T02:08:31;8.00;6.30
108;DHT22;49;48.530;9.200;2022-11-11T02:11:05;8.00;5.90
108;DHT22;49;48.530;9.200;2022-11-11T02:13:37;8.20;5.70
108;DHT22;49;48.530;9.200;2022-11-11T02:16:22;8.30;5.30
108;DHT22;49;48.530;9.200;2022-11-11T02:21:24;8.20;5.10
108;DHT22;49;48.530;9.200;2022-11-11T02:24:02;8.00;5.50
108;DHT22;49;48.530;9.200;2022-11-11T02:26:31;8.20;5.60
108;DHT22;49;48.530;9.200;2022-11-11T02:29:03;8.10;5.10
108;DHT22;49;48.530;9.200;2022-11-11T02:31:31;7.80;5.60
108;DHT22;49;48.530;9.200;2022-11-11T02:36:28;7.70;6.20
108;DHT22;49;48.530;9.200;2022-11-11T02:38:55;7.80;6.00
108;DHT22;49;48.530;9.200;2022-11-11T02:41:23;7.80;5.90
108;DHT22;49;48.530;9.200;2022-11-11T02:44:07;7.60;6.10
108;DHT22;49;48.530;9.200;2022-11-11T02:46:34;7.70;6.90
108;DHT22;49;48.530;9.200;2022-11-11T02:49:01;7.70;5.80
108;DHT22;49;48.530;9.200;2022-11-11T02:51:28;7.80;5.80
108;DHT22;49;48.530;9.200;2022-11-11T02:53:55;7.60;5.40
108;DHT22;49;48.530;9.200;2022-11-11T02:56:29;7.70;5.80
108;DHT22;49;48.530;9.200;2022-11-11T02:59:27;7.80;5.90
108;DHT22;49;48.530;9.200;2022-11-11T03:01:54;7.80;6.00
108;DHT22;49;48.530;9.200;2022-11-11T03:04:21;7.70;5.40
108;DHT22;49;48.530;9.200;2022-11-11T03:06:48;7.90;5.70
108;DHT22;49;48.530;9.200;2022-11-11T03:09:16;7.70;5.60
108;DHT22;49;48.530;9.200;2022-11-11T03:11:44;7.60;5.40
108;DHT22;49;48.530;9.200;2022-11-11T03:14:11;7.60;6.80
108;DHT22;49;48.530;9.200;2022-11-11T03:16:38;7.60;6.60
108;DHT22;49;48.530;9.200;2022-11-11T03:19:22;7.90;6.50
108;DHT22;49;48.530;9.200;2022-11-11T03:21:49;7.80;6.00
108;DHT22;49;48.530;9.200;2022-11-11T03:24:15;7.70;6.70
108;DHT22;49;48.530;9.200;2022-11-11T03:26:43;7.80;6.70
108;DHT22;49;48.530;9.200;2022-11-11T03:29:10;7.70;6.50
108;DHT22;49;48.530;9.200;2022-11-11T03:31:37;7.80;6.70
108;DHT22;49;48.530;9.200;2022-11-11T03:34:04;7.50;6.70
108;DHT22;49;48.530;9.200;2022-11-11T03:36:46;7.10;7.20
108;DHT22;49;48.530;9.200;2022-11-11T03:42:01;6.70;8.60
108;DHT22;49;48.530;9.200;2022-11-11T03:44:28;6.70;8.70
108;DHT22;49;48.530;9.200;2022-11-11T03:49:23;6.80;8.70
108;DHT22;49;48.530;9.200;2022-11-11T03:54:18;6.90;8.70
108;DHT22;49;48.530;9.200;2022-11-11T03:56:45;6.80;8.70
108;DHT22;49;48.530;9.200;2022-11-11T03:59:14;7.00;8.80
108;DHT22;49;48.530;9.200;2022-11-11T04:01:40;7.10;7.40
108;DHT22;49;48.530;9.200;2022-11-11T04:04:25;7.30;7.90
108;DHT22;49;48.530;9.200;2022-11-11T04:09:37;7.10;7.00
108;DHT22;49;48.530;9.200;2022-11-11T04:17:25;7.10;7.10
108;DHT22;49;48.530;9.200;2022-11-11T04:19:52;7.00;7.10
108;DHT22;49;48.530;9.200;2022-11-11T04:22:39;7.10;7.60
108;DHT22;49;48.530;9.200;2022-11-11T04:27:36;7.10;6.70
108;DHT22;49;48.530;9.200;2022-11-11T04:30:04;7.10;7.20
108;DHT22;49;48.530;9.200;2022-11-11T04:32:31;7.10;6.30
108;DHT22;49;48.530;9.200;2022-11-11T04:37:32;7.20;6.20
108;DHT22;49;48.530;9.200;2022-11-11T04:45:00;7.30;6.40
108;DHT22;49;48.530;9.200;2022-11-11T04:47:58;7.30;6.60
108;DHT22;49;48.530;9.200;2022-11-11T04:57:51;6.70;8.60
108;DHT22;49;48.530;9.200;2022-11-11T05:12:54;6.50;10.50
108;DHT22;49;48.530;9.200;2022-11-11T05:45:45;6.90;6.70
108;DHT22;49;48.530;9.200;2022-11-11T05:58:20;6.90;6.20
108;DHT22;49;48.530;9.200;2022-11-11T06:13:15;6.80;7.20
108;DHT22;49;48.530;9.200;2022-11-11T07:03:21;7.30;6.40
108;DHT22;49;48.530;9.200;2022-11-11T07:23:23;8.00;5.50
108;DHT22;49;48.530;9.200;2022-11-11T07:35:54;7.80;5.90
108;DHT22;49;48.530;9.200;2022-11-11T07:38:23;7.80;6.70
108;DHT22;49;48.530;9.200;2022-11-11T07:40:50;7.80;6.60
108;DHT22;49;48.530;9.200;2022-11-11T07:43:17;7.90;6.80
108;DHT22;49;48.530;9.200;2022-11-11T07:45:44;7.90;7.40
108;DHT22;49;48.530;9.200;2022-11-11T07:48:11;8.30;6.80
108;DHT22;49;48.530;9.200;2022-11-11T07:53:07;8.20;6.70
108;DHT22;49;48.530;9.200;2022-11-11T07:55:35;8.30;6.50
108;DHT22;49;48.530;9.200;2022-11-11T07:58:02;8.20;7.70
108;DHT22;49;48.530;9.200;2022-11-11T08:00:29;8.30;7.10
108;DHT22;49;48.530;9.200;2022-11-11T08:02:56;8.30;6.80
108;DHT22;49;48.530;9.200;2022-11-11T08:05:23;8.60;8.40
108;DHT22;49;48.530;9.200;2022-11-11T08:07:50;8.90;9.10
108;DHT22;49;48.530;9.200;2022-11-11T08:10:17;9.10;8.40
108;DHT22;49;48.530;9.200;2022-11-11T08:12:46;9.30;5.20
108;DHT22;49;48.530;9.200;2022-11-11T08:15:30;9.30;4.40
108;DHT22;49;48.530;9.200;2022-11-11T08:17:57;9.30;6.30
108;DHT22;49;48.530;9.200;2022-11-11T08:20:24;9.50;5.40
108;DHT22;49;48.530;9.200;2022-11-11T08:22:51;10.20;5.70
108;DHT22;49;48.530;9.200;2022-11-11T08:25:19;10.60;3.80
108;DHT22;49;48.530;9.200;2022-11-11T08:27:55;10.70;2.40
108;DHT22;49;48.530;9.200;2022-11-11T08:30:22;10.90;2.20
108;DHT22;49;48.530;9.200;2022-11-11T08:32:56;10.90;1.90
108;DHT22;49;48.530;9.200;2022-11-11T08:35:22;10.80;2.10
108;DHT22;49;48.530;9.200;2022-11-11T08:37:49;10.80;2.80
108;DHT22;49;48.530;9.200;2022-11-11T08:40:16;10.90;3.30
108;DHT22;49;48.530;9.200;2022-11-11T08:42:43;10.80;2.90
108;DHT22;49;48.530;9.200;2022-11-11T08:45:12;11.00;3.30
108;DHT22;49;48.530;9.200;2022-11-11T08:47:43;11.00;3.70
108;DHT22;49;48.530;9.200;2022-11-11T08:50:10;10.90;3.60
108;DHT22;49;48.530;9.200;2022-11-11T08:52:37;11.10;5.30
108;DHT22;49;48.530;9.200;2022-11-11T08:55:04;11.10;4.20
108;DHT22;49;48.530;9.200;2022-11-11T08:57:31;11.20;4.30
108;DHT22;49;48.530;9.200;2022-11-11T08:59:58;11.60;4.60
108;DHT22;49;48.530;9.200;2022-11-11T09:02:26;11.90;3.50
108;DHT22;49;48.530;9.200;2022-11-11T09:04:53;12.20;2.90
108;DHT22;49;48.530;9.200;2022-11-11T09:07:20;12.50;5.00
108;DHT22;49;48.530;9.200;2022-11-11T09:09:48;12.40;2.20
108;DHT22;49;48.530;9.200;2022-11-11T09:12:15;12.70;4.80
108;DHT22;49;48.530;9.200;2022-11-11T09:14:42;13.00;3.90
108;DHT22;49;48.530;9.200;2022-11-11T09:17:09;13.30;1.70
108;DHT22;49;48.530;9.200;2022-11-11T09:19:37;13.30;1.20
108;DHT22;49;48.530;9.200;2022-11-11T09:22:04;13.00;1.00
108;DHT22;49;48.530;9.200;2022-11-11T09:24:32;12.90;2.80
108;DHT22;49;48.530;9.200;2022-11-11T09:26:58;13.20;3.70
108;DHT22;49;48.530;9.200;2022-11-11T09:29:25;13.60;4.60
108;DHT22;49;48.530;9.200;2022-11-11T09:31:52;13.70;3.40
108;DHT22;49;48.530;9.200;2022-11-11T09:34:19;13.70;1.60
108;DHT22;49;48.530;9.200;2022-11-11T09:36:48;13.80;2.50
108;DHT22;49;48.530;9.200;2022-11-11T09:39:15;13.80;1.30
108;DHT22;49;48.530;9.200;2022-11-11T09:41:50;13.70;1.00
108;DHT22;49;48.530;9.200;2022-11-11T09:44:33;13.70;1.30
108;DHT22;49;48.530;9.200;2022-11-11T09:47:13;13.50;1.10
108;DHT22;49;48.530;9.200;2022-11-11T09:49:55;13.90;1.90
108;DHT22;49;48.530;9.200;2022-11-11T09:52:29;14.10;1.80
108;DHT22;49;48.530;9.200;2022-11-11T09:55:02;14.10;1.80
108;DHT22;49;48.530;9.200;2022-11-11T09:57:36;14.20;1.10
108;DHT22;49;48.530;9.200;2022-11-11T10:00:12;14.30;2.00
108;DHT22;49;48.530;9.200;2022-11-11T10:02:46;14.40;2.00
108;DHT22;49;48.530;9.200;2022-11-11T10:05:20;14.40;1.00
108;DHT22;49;48.530;9.200;2022-11-11T10:07:54;14.60;1.00
108;DHT22;49;48.530;9.200;2022-11-11T10:10:29;14.70;1.00
108;DHT22;49;48.530;9.200;2022-11-11T10:12:58;14.70;1.00
108;DHT22;49;48.530;9.200;2022-11-11T10:15:32;14.80;1.00
108;DHT22;49;48.530;9.200;2022-11-11T10:18:10;15.00;1.00
108;DHT22;49;48.530;9.200;2022-11-11T10:20:41;14.90;1.00
108;DHT22;49;48.530;9.200;2022-11-11T10:23:14;14.60;1.00
108;DHT22;49;48.530;9.200;2022-11-11T10:25:48;14.60;1.00
108;DHT22;49;48.530;9.200;2022-11-11T10:28:20;15.00;1.00
108;DHT22;49;48.530;9.200;2022-11-11T10:30:48;15.10;1.00
108;DHT22;49;48.530;9.200;2022-11-11T10:33:20;15.00;1.00
108;DHT22;49;48.530;9.200;2022-11-11T10:35:50;14.90;1.00
108;DHT22;49;48.530;9.200;2022-11-11T10:38:30;14.70;1.00
108;DHT22;49;48.530;9.200;2022-11-11T10:41:09;14.80;1.00
108;DHT22;49;48.530;9.200;2022-11-11T10:43:37;14.70;1.00
108;DHT22;49;48.530;9.200;2022-11-11T10:46:12;14.50;1.00
108;DHT22;49;48.530;9.200;2022-11-11T10:48:50;14.10;1.00
108;DHT22;49;48.530;9.200;2022-11-11T10:51:21;14.40;1.90
108;DHT22;49;48.530;9.200;2022-11-11T10:53:59;14.60;1.00
108;DHT22;49;48.530;9.200;2022-11-11T10:56:34;14.90;1.00
108;DHT22;49;48.530;9.200;2022-11-11T10:59:11;15.20;1.00
108;DHT22;49;48.530;9.200;2022-11-11T11:01:43;15.40;1.00
108;DHT22;49;48.530;9.200;2022-11-11T11:04:20;15.40;1.00
108;DHT22;49;48.530;9.200;2022-11-11T11:06:51;15.60;1.00
108;DHT22;49;48.530;9.200;2022-11-11T11:09:26;15.90;1.00
108;DHT22;49;48.530;9.200;2022-11-11T11:11:58;16.30;1.00
108;DHT22;49;48.530;9.200;2022-11-11T11:14:29;16.30;1.00
108;DHT22;49;48.530;9.200;2022-11-11T11:17:03;16.30;1.00
108;DHT22;49;48.530;9.200;2022-11-11T11:19:32;16.30;1.00
108;DHT22;49;48.530;9.200;2022-11-11T11:52:15;16.90;1.00
108;DHT22;49;48.530;9.200;2022-11-11T11:54:54;17.00;1.00
108;DHT22;49;48.530;9.200;2022-11-11T12:14:17;17.20;1.00
108;DHT22;49;48.530;9.200;2022-11-11T14:06:59;17.70;1.00
108;DHT22;49;48.530;9.200;2022-11-11T15:30:10;17.80;1.00
108;DHT22;49;48.530;9.200;2022-11-11T16:00:32;17.90;1.00
108;DHT22;49;48.530;9.200;2022-11-11T17:09:37;15.70;3.00
108;DHT22;49;48.530;9.200;2022-11-11T19:32:24;14.20;5.90
108;DHT22;49;48.530;9.200;2022-11-11T20:10:24;13.20;7.00
108;DHT22;49;48.530;9.200;2022-11-11T20:43:37;13.50;3.40
108;DHT22;49;48.530;9.200;2022-11-11T21:11:42;14.00;5.20
108;DHT22;49;48.530;9.200;2022-11-11T21:14:11;14.00;5.90
108;DHT22;49;48.530;9.200;2022-11-11T21:16:39;14.10;5.20
108;DHT22;49;48.530;9.200;2022-11-11T22:03:48;13.80;5.80
108;DHT22;49;48.530;9.200;2022-11-11T22:08:52;13.60;1.90
108;DHT22;49;48.530;9.200;2022-11-11T22:13:56;13.30;2.70
108;DHT22;49;48.530;9.200;2022-11-11T22:24:15;12.00;2.60
108;DHT22;49;48.530;9.200;2022-11-11T22:26:43;11.60;3.90
108;DHT22;49;48.530;9.200;2022-11-11T22:55:44;9.90;7.80
108;DHT22;49;48.530;9.200;2022-11-11T22:58:15;9.90;8.80
108;DHT22;49;48.530;9.200;2022-11-11T23:03:19;9.70;8.60
108;DHT22;49;48.530;9.200;2022-11-11T23:21:09;9.90;7.90
108;DHT22;49;48.530;9.200;2022-11-11T23:33:43;10.20;7.50
108;DHT22;49;48.530;9.200;2022-11-11T23:46:15;9.80;8.80
